createdAt,value
2019-02-07T00:02:30.912Z,5.70
2019-02-07T00:05:01.473Z,5.70
2019-02-07T00:07:32.096Z,5.60
2019-02-07T00:10:02.639Z,5.60
2019-02-07T00:12:33.261Z,5.60
2019-02-07T00:15:04.322Z,5.60
2019-02-07T00:17:35.165Z,5.60
2019-02-07T00:20:07.202Z,5.60
2019-02-07T00:22:39.311Z,5.60
2019-02-07T00:25:10.590Z,5.60
2019-02-07T00:27:41.057Z,5.60
2019-02-07T00:30:13.491Z,5.50
2019-02-07T00:32:44.055Z,5.50
2019-02-07T00:35:15.750Z,5.50
2019-02-07T00:37:46.224Z,5.50
2019-02-07T00:40:17.097Z,5.50
2019-02-07T00:42:48.000Z,5.50
2019-02-07T00:45:19.145Z,5.50
2019-02-07T00:47:50.077Z,5.50
2019-02-07T00:50:20.513Z,5.50
2019-02-07T00:52:50.995Z,5.50
2019-02-07T00:55:21.444Z,5.40
2019-02-07T00:57:52.346Z,5.40
2019-02-07T01:00:24.345Z,5.40
2019-02-07T01:02:54.952Z,5.40
2019-02-07T01:05:26.988Z,5.40
2019-02-07T01:07:57.678Z,5.40
2019-02-07T01:10:30.131Z,5.40
2019-02-07T01:13:00.630Z,5.40
2019-02-07T01:15:31.474Z,5.30
2019-02-07T01:18:02.056Z,5.40
2019-02-07T01:20:33.085Z,5.40
2019-02-07T01:23:03.931Z,5.40
2019-02-07T01:25:34.404Z,5.40
2019-02-07T01:28:05.206Z,5.30
2019-02-07T01:30:37.096Z,5.40
2019-02-07T01:33:07.676Z,5.30
2019-02-07T01:35:38.719Z,5.30
2019-02-07T01:38:09.196Z,5.30
2019-02-07T01:40:39.718Z,5.30
2019-02-07T01:43:10.348Z,5.30
2019-02-07T01:45:41.268Z,5.30
2019-02-07T01:48:11.777Z,5.30
2019-02-07T01:50:42.415Z,5.30
2019-02-07T01:53:12.962Z,5.30
2019-02-07T01:55:43.434Z,5.30
2019-02-07T01:58:15.513Z,5.30
2019-02-07T02:00:47.577Z,5.30
2019-02-07T02:03:18.107Z,5.30
2019-02-07T02:05:48.936Z,5.20
2019-02-07T02:08:19.420Z,5.20
2019-02-07T02:10:50.221Z,5.20
2019-02-07T02:13:20.679Z,5.20
2019-02-07T02:15:51.416Z,5.20
2019-02-07T02:18:22.670Z,5.10
2019-02-07T02:20:53.121Z,5.10
2019-02-07T02:23:23.564Z,5.00
2019-02-07T02:25:54.053Z,5.00
2019-02-07T02:28:24.710Z,5.00
2019-02-07T02:30:55.183Z,5.00
2019-02-07T02:33:25.752Z,4.90
2019-02-07T02:35:56.270Z,4.90
2019-02-07T02:38:26.791Z,4.90
2019-02-07T02:40:57.342Z,4.90
2019-02-07T02:43:28.017Z,4.90
2019-02-07T02:45:58.437Z,4.80
2019-02-07T02:48:29.170Z,4.90
2019-02-07T02:50:59.857Z,4.90
2019-02-07T02:53:30.562Z,4.80
2019-02-07T02:56:02.932Z,4.80
2019-02-07T02:58:34.700Z,4.80
2019-02-07T03:01:27.516Z,4.80
2019-02-07T03:04:16.942Z,4.80
2019-02-07T03:07:12.388Z,4.80
2019-02-07T03:09:50.716Z,4.80
2019-02-07T03:12:55.193Z,4.80
2019-02-07T03:15:49.574Z,4.80
2019-02-07T03:18:32.053Z,4.80
2019-02-07T03:21:20.534Z,4.80
2019-02-07T03:24:14.051Z,4.80
2019-02-07T03:27:01.900Z,4.80
2019-02-07T03:29:54.361Z,4.70
2019-02-07T03:32:45.969Z,4.70
2019-02-07T03:35:42.252Z,4.70
2019-02-07T03:38:30.512Z,4.70
2019-02-07T03:41:29.133Z,4.70
2019-02-07T03:44:18.753Z,4.60
2019-02-07T03:47:20.403Z,4.60
2019-02-07T03:50:04.121Z,4.60
2019-02-07T03:52:58.217Z,4.60
2019-02-07T03:55:41.327Z,4.60
2019-02-07T03:58:33.728Z,4.50
2019-02-07T04:01:32.748Z,4.50
2019-02-07T04:04:34.625Z,4.50
2019-02-07T04:07:14.514Z,4.50
2019-02-07T04:10:23.259Z,4.50
2019-02-07T04:13:11.775Z,4.40
2019-02-07T04:16:14.751Z,4.50
2019-02-07T04:18:58.070Z,4.40
2019-02-07T04:21:50.393Z,4.40
2019-02-07T04:24:39.896Z,4.40
2019-02-07T04:27:38.621Z,4.40
2019-02-07T04:30:28.368Z,4.40
2019-02-07T04:33:33.050Z,4.40
2019-02-07T04:36:29.699Z,4.40
2019-02-07T04:39:15.488Z,4.40
2019-02-07T04:41:59.682Z,4.40
2019-02-07T04:44:49.524Z,4.40
2019-02-07T04:47:49.078Z,4.40
2019-02-07T04:50:44.543Z,4.50
2019-02-07T04:53:33.992Z,4.50
2019-02-07T04:56:15.029Z,4.50
2019-02-07T04:59:16.882Z,4.50
2019-02-07T05:02:24.834Z,4.60
2019-02-07T05:05:13.456Z,4.60
2019-02-07T05:07:56.505Z,4.70
2019-02-07T05:10:50.295Z,4.70
2019-02-07T05:13:51.582Z,4.70
2019-02-07T05:16:39.660Z,4.80
2019-02-07T05:19:27.161Z,4.80
2019-02-07T05:22:15.468Z,4.80
2019-02-07T05:24:59.060Z,4.80
2019-02-07T05:27:43.208Z,4.90
2019-02-07T05:30:37.137Z,4.90
2019-02-07T05:33:29.568Z,4.90
2019-02-07T05:36:21.976Z,4.90
2019-02-07T05:39:08.804Z,4.90
2019-02-07T05:42:03.765Z,5.00
2019-02-07T05:45:11.745Z,5.00
2019-02-07T05:48:00.271Z,5.00
2019-02-07T05:50:48.727Z,5.00
2019-02-07T05:53:41.237Z,5.00
2019-02-07T05:56:39.878Z,5.00
2019-02-07T05:59:28.176Z,5.10
2019-02-07T06:02:26.763Z,5.00
2019-02-07T06:05:11.448Z,5.10
2019-02-07T06:07:50.548Z,5.10
2019-02-07T06:10:31.740Z,5.10
2019-02-07T06:13:19.836Z,5.10
2019-02-07T06:16:15.516Z,5.10
2019-02-07T06:19:20.044Z,5.10
2019-02-07T06:22:26.084Z,5.10
2019-02-07T06:25:14.304Z,5.10
2019-02-07T06:27:58.077Z,5.10
2019-02-07T06:30:53.467Z,5.10
2019-02-07T06:33:51.903Z,5.10
2019-02-07T06:36:53.564Z,5.00
2019-02-07T06:39:39.857Z,5.00
2019-02-07T06:42:38.505Z,5.00
2019-02-07T06:45:22.326Z,5.00
2019-02-07T06:48:17.824Z,5.00
2019-02-07T06:51:13.046Z,5.10
2019-02-07T06:54:00.101Z,5.00
2019-02-07T06:56:48.115Z,5.10
2019-02-07T06:59:32.176Z,5.10
2019-02-07T07:02:20.400Z,5.10
2019-02-07T07:05:25.308Z,5.10
2019-02-07T07:08:17.776Z,5.10
2019-02-07T07:11:06.113Z,5.10
2019-02-07T07:13:42.903Z,5.20
2019-02-07T07:16:44.401Z,5.20
2019-02-07T07:19:36.668Z,5.10
2019-02-07T07:22:32.325Z,5.20
2019-02-07T07:25:20.412Z,5.20
2019-02-07T07:28:01.605Z,5.20
2019-02-07T07:30:53.005Z,5.20
2019-02-07T07:33:45.291Z,5.20
2019-02-07T07:36:33.440Z,5.20
2019-02-07T07:39:33.005Z,5.20
2019-02-07T07:42:34.300Z,5.20
2019-02-07T07:45:34.499Z,5.30
2019-02-07T07:48:22.955Z,5.30
2019-02-07T07:51:12.419Z,5.30
2019-02-07T07:54:01.941Z,5.30
2019-02-07T07:56:50.230Z,5.30
2019-02-07T07:59:42.349Z,5.30
2019-02-07T08:02:22.152Z,5.30
2019-02-07T08:05:20.918Z,5.30
2019-02-07T08:08:08.971Z,5.30
2019-02-07T08:10:47.724Z,5.30
2019-02-07T08:13:38.146Z,5.40
2019-02-07T08:16:33.618Z,5.40
2019-02-07T08:19:31.208Z,5.30
2019-02-07T08:22:19.268Z,5.40
2019-02-07T08:25:04.128Z,5.30
2019-02-07T08:27:46.307Z,5.40
2019-02-07T08:30:46.600Z,5.30
2019-02-07T08:33:36.088Z,5.40
2019-02-07T08:36:26.737Z,5.30
2019-02-07T08:39:27.984Z,5.30
2019-02-07T08:42:17.539Z,5.40
2019-02-07T08:45:05.561Z,5.40
2019-02-07T08:48:07.112Z,5.40
2019-02-07T08:51:01.609Z,5.40
2019-02-07T08:54:00.123Z,5.40
2019-02-07T08:57:01.808Z,5.50
2019-02-07T08:59:53.946Z,5.60
2019-02-07T09:02:52.653Z,5.50
2019-02-07T09:05:41.019Z,5.60
2019-02-07T09:08:30.457Z,5.70
2019-02-07T09:11:19.865Z,5.70
2019-02-07T09:14:13.661Z,5.80
2019-02-07T09:17:18.373Z,5.80
2019-02-07T09:20:15.279Z,5.80
2019-02-07T09:22:56.491Z,5.80
2019-02-07T09:25:46.197Z,5.90
2019-02-07T09:28:38.730Z,6.00
2019-02-07T09:31:43.301Z,6.00
2019-02-07T09:34:27.001Z,6.00
2019-02-07T09:37:20.824Z,6.10
2019-02-07T09:40:01.260Z,6.20
2019-02-07T09:42:57.721Z,6.20
2019-02-07T09:45:47.123Z,6.30
2019-02-07T09:48:35.417Z,6.40
2019-02-07T09:51:37.236Z,6.40
2019-02-07T09:54:44.851Z,6.50
2019-02-07T09:57:28.442Z,6.60
2019-02-07T10:00:15.285Z,6.70
2019-02-07T10:03:02.878Z,6.70
2019-02-07T10:05:50.854Z,6.80
2019-02-07T10:08:49.474Z,6.90
2019-02-07T10:11:44.877Z,7.00
2019-02-07T10:14:30.686Z,7.10
2019-02-07T10:17:26.323Z,7.10
2019-02-07T10:20:21.775Z,7.20
2019-02-07T10:23:14.037Z,7.30
2019-02-07T10:25:59.689Z,7.30
2019-02-07T10:28:55.027Z,7.40
2019-02-07T10:31:44.522Z,7.50
2019-02-07T10:34:32.784Z,7.60
2019-02-07T10:37:21.573Z,7.60
2019-02-07T10:40:11.296Z,7.70
2019-02-07T10:43:10.129Z,7.80
2019-02-07T10:46:02.349Z,7.90
2019-02-07T10:49:04.973Z,7.90
2019-02-07T10:51:49.988Z,8.00
2019-02-07T10:54:58.053Z,8.10
2019-02-07T10:57:47.538Z,8.10
2019-02-07T11:00:38.041Z,8.20
2019-02-07T11:03:26.763Z,8.30
2019-02-07T11:06:16.853Z,8.40
2019-02-07T11:09:04.905Z,8.40
2019-02-07T11:11:54.798Z,8.50
2019-02-07T11:15:01.116Z,8.60
2019-02-07T11:18:03.384Z,8.60
2019-02-07T11:21:04.991Z,8.60
2019-02-07T11:23:53.397Z,8.70
2019-02-07T11:26:41.332Z,8.70
2019-02-07T11:29:31.214Z,8.70
2019-02-07T11:32:32.721Z,8.70
2019-02-07T11:35:20.125Z,8.70
2019-02-07T11:38:09.619Z,8.70
2019-02-07T11:40:57.934Z,8.70
2019-02-07T11:43:56.372Z,8.70
2019-02-07T11:46:44.631Z,8.80
2019-02-07T11:49:52.369Z,8.80
2019-02-07T11:52:43.114Z,8.80
2019-02-07T11:55:31.373Z,8.80
2019-02-07T11:58:27.649Z,8.80
2019-02-07T12:01:19.832Z,8.80
2019-02-07T12:04:27.638Z,8.90
2019-02-07T12:07:22.845Z,8.90
2019-02-07T12:10:12.412Z,8.90
2019-02-07T12:13:04.882Z,9.00
2019-02-07T12:16:04.553Z,9.00
2019-02-07T12:18:52.610Z,9.00
2019-02-07T12:21:48.432Z,9.10
2019-02-07T12:24:43.778Z,9.10
2019-02-07T12:27:32.549Z,9.10
2019-02-07T12:30:21.932Z,9.20
2019-02-07T12:33:26.385Z,9.20
2019-02-07T12:36:05.742Z,9.30
2019-02-07T12:38:52.094Z,9.30
2019-02-07T12:41:47.784Z,9.40
2019-02-07T12:44:40.131Z,9.40
2019-02-07T12:47:28.902Z,9.50
2019-02-07T12:50:16.850Z,9.50
2019-02-07T12:53:05.056Z,9.60
2019-02-07T12:56:03.242Z,9.60
2019-02-07T12:59:01.845Z,9.60
2019-02-07T13:02:03.595Z,9.60
2019-02-07T13:04:46.441Z,9.60
2019-02-07T13:07:34.452Z,9.70
2019-02-07T13:10:19.003Z,9.70
2019-02-07T13:13:17.375Z,9.70
2019-02-07T13:16:01.126Z,9.70
2019-02-07T13:18:59.647Z,9.70
2019-02-07T13:21:49.138Z,9.80
2019-02-07T13:24:53.811Z,9.80
2019-02-07T13:27:41.864Z,9.80
2019-02-07T13:30:33.562Z,9.80
2019-02-07T13:33:20.812Z,9.80
2019-02-07T13:35:58.917Z,9.80
2019-02-07T13:38:47.361Z,9.90
2019-02-07T13:41:31.517Z,9.90
2019-02-07T13:44:19.891Z,9.90
2019-02-07T13:47:21.584Z,9.80
2019-02-07T13:50:10.952Z,9.80
2019-02-07T13:53:18.968Z,9.80
2019-02-07T13:56:23.148Z,9.80
2019-02-07T13:59:10.457Z,9.80
2019-02-07T14:02:14.712Z,9.80
2019-02-07T14:05:08.674Z,9.80
2019-02-07T14:07:50.868Z,9.70
2019-02-07T14:10:46.133Z,9.80
2019-02-07T14:13:35.601Z,9.70
2019-02-07T14:16:31.147Z,9.70
2019-02-07T14:19:13.701Z,9.70
2019-02-07T14:22:04.280Z,9.70
2019-02-07T14:25:06.165Z,9.70
2019-02-07T14:27:55.664Z,9.70
2019-02-07T14:30:57.209Z,9.70
2019-02-07T14:33:41.527Z,9.70
2019-02-07T14:36:45.505Z,9.70
2019-02-07T14:39:34.563Z,9.70
2019-02-07T14:42:23.954Z,9.70
2019-02-07T14:45:12.496Z,9.60
2019-02-07T14:47:43.120Z,9.60
2019-02-07T14:50:15.335Z,9.60
2019-02-07T14:52:47.498Z,9.60
2019-02-07T14:55:18.017Z,9.60
2019-02-07T14:57:48.630Z,9.60
2019-02-07T15:00:21.291Z,9.60
2019-02-07T15:02:52.032Z,9.60
2019-02-07T15:05:22.862Z,9.60
2019-02-07T15:07:53.443Z,9.60
2019-02-07T15:10:24.284Z,9.60
2019-02-07T15:12:54.780Z,9.60
2019-02-07T15:15:25.301Z,9.50
2019-02-07T15:17:55.993Z,9.50
2019-02-07T15:20:26.640Z,9.50
2019-02-07T15:22:57.296Z,9.50
2019-02-07T15:25:27.780Z,9.50
2019-02-07T15:27:58.442Z,9.50
2019-02-07T15:30:28.895Z,9.50
2019-02-07T15:32:59.462Z,9.40
2019-02-07T15:35:35.368Z,9.50
2019-02-07T15:38:06.272Z,9.40
2019-02-07T15:40:36.836Z,9.40
2019-02-07T15:43:07.404Z,9.40
2019-02-07T15:45:38.109Z,9.40
2019-02-07T15:48:08.848Z,9.30
2019-02-07T15:50:40.409Z,9.30
2019-02-07T15:53:11.111Z,9.30
2019-02-07T15:55:41.684Z,9.30
2019-02-07T15:58:12.129Z,9.20
2019-02-07T16:00:51.940Z,9.20
2019-02-07T16:03:39.495Z,9.20
2019-02-07T16:06:10.125Z,9.20
2019-02-07T16:08:40.760Z,9.10
2019-02-07T16:11:11.370Z,9.10
2019-02-07T16:13:43.398Z,9.10
2019-02-07T16:16:13.996Z,9.00
2019-02-07T16:18:44.638Z,9.00
2019-02-07T16:21:15.140Z,9.00
2019-02-07T16:23:47.006Z,8.90
2019-02-07T16:26:17.560Z,8.90
2019-02-07T16:28:48.112Z,8.90
2019-02-07T16:31:18.677Z,8.90
2019-02-07T16:33:49.192Z,8.90
2019-02-07T16:36:19.997Z,8.80
2019-02-07T16:38:50.913Z,8.80
2019-02-07T16:41:21.432Z,8.80
2019-02-07T16:43:51.969Z,8.80
2019-02-07T16:46:22.333Z,8.80
2019-02-07T16:48:52.837Z,8.70
2019-02-07T16:51:23.388Z,8.70
2019-02-07T16:53:54.424Z,8.70
2019-02-07T16:56:24.901Z,8.70
2019-02-07T16:58:55.453Z,8.70
2019-02-07T17:01:25.945Z,8.70
2019-02-07T17:03:56.488Z,8.70
2019-02-07T17:06:27.271Z,8.60
2019-02-07T17:08:57.850Z,8.60
2019-02-07T17:11:28.317Z,8.60
2019-02-07T17:13:58.881Z,8.60
2019-02-07T17:16:30.283Z,8.60
2019-02-07T17:19:01.150Z,8.60
2019-02-07T17:21:31.699Z,8.60
2019-02-07T17:24:02.186Z,8.60
2019-02-07T17:26:32.724Z,8.60
2019-02-07T17:29:03.229Z,8.60
2019-02-07T17:31:33.754Z,8.60
2019-02-07T17:34:04.301Z,8.60
2019-02-07T17:36:34.770Z,8.50
2019-02-07T17:39:07.677Z,8.50
2019-02-07T17:41:39.743Z,8.50
2019-02-07T17:44:10.403Z,8.60
2019-02-07T17:46:41.258Z,8.50
2019-02-07T17:49:11.837Z,8.50
2019-02-07T17:51:42.502Z,8.50
2019-02-07T17:54:18.925Z,8.50
2019-02-07T17:56:45.375Z,8.50
2019-02-07T17:59:17.934Z,8.50
2019-02-07T18:01:49.190Z,8.50
2019-02-07T18:04:19.832Z,8.50
2019-02-07T18:06:50.466Z,8.50
2019-02-07T18:09:21.088Z,8.50
2019-02-07T18:11:51.577Z,8.50
2019-02-07T18:14:22.054Z,8.50
2019-02-07T18:16:52.525Z,8.50
2019-02-07T18:19:23.064Z,8.50
2019-02-07T18:21:53.693Z,8.50
2019-02-07T18:24:24.257Z,8.50
2019-02-07T18:26:55.053Z,8.50
2019-02-07T18:29:28.570Z,8.40
2019-02-07T18:31:59.109Z,8.40
2019-02-07T18:34:29.617Z,8.40
2019-02-07T18:37:00.192Z,8.40
2019-02-07T18:39:30.999Z,8.40
2019-02-07T18:42:01.614Z,8.40
2019-02-07T18:44:32.146Z,8.40
2019-02-07T18:47:04.439Z,8.40
2019-02-07T18:49:34.926Z,8.40
2019-02-07T18:52:05.547Z,8.40
2019-02-07T18:54:37.603Z,8.40
2019-02-07T18:57:08.082Z,8.40
2019-02-07T18:59:38.613Z,8.40
2019-02-07T19:02:09.340Z,8.40
2019-02-07T19:04:39.856Z,8.30
2019-02-07T19:07:10.446Z,8.40
2019-02-07T19:09:40.976Z,8.30
2019-02-07T19:12:12.118Z,8.40
2019-02-07T19:14:42.589Z,8.30
2019-02-07T19:17:13.116Z,8.30
2019-02-07T19:19:43.748Z,8.30
2019-02-07T19:22:16.161Z,8.30
2019-02-07T19:24:46.715Z,8.30
2019-02-07T19:27:17.256Z,8.30
2019-02-07T19:29:47.840Z,8.40
2019-02-07T19:32:18.491Z,8.40
2019-02-07T19:34:49.011Z,8.30
2019-02-07T19:37:19.605Z,8.30
2019-02-07T19:39:50.289Z,8.30
2019-02-07T19:42:20.840Z,8.30
2019-02-07T19:44:52.114Z,8.30
2019-02-07T19:47:22.936Z,8.30
2019-02-07T19:49:53.950Z,8.30
2019-02-07T19:52:24.571Z,8.30
2019-02-07T19:54:55.097Z,8.30
2019-02-07T19:57:25.712Z,8.30
2019-02-07T19:59:57.587Z,8.30
2019-02-07T20:02:28.543Z,8.30
2019-02-07T20:04:59.135Z,8.40
2019-02-07T20:07:29.801Z,8.30
2019-02-07T20:10:00.521Z,8.30
2019-02-07T20:12:32.839Z,8.30
2019-02-07T20:15:03.801Z,8.30
2019-02-07T20:17:35.066Z,8.30
2019-02-07T20:20:07.789Z,8.30
2019-02-07T20:22:38.583Z,8.30
2019-02-07T20:25:10.097Z,8.30
2019-02-07T20:27:40.769Z,8.30
2019-02-07T20:30:18.534Z,8.30
2019-02-07T20:32:49.104Z,8.30
2019-02-07T20:35:19.957Z,8.30
2019-02-07T20:37:50.679Z,8.30
2019-02-07T20:40:24.132Z,8.30
2019-02-07T20:42:54.759Z,8.30
2019-02-07T20:45:26.982Z,8.30
2019-02-07T20:47:57.741Z,8.30
2019-02-07T20:50:28.889Z,8.30
2019-02-07T20:53:00.015Z,8.30
2019-02-07T20:55:30.920Z,8.30
2019-02-07T20:58:03.018Z,8.30
2019-02-07T21:00:35.447Z,8.30
2019-02-07T21:03:06.836Z,8.30
2019-02-07T21:05:37.609Z,8.20
2019-02-07T21:08:08.344Z,8.20
2019-02-07T21:10:40.593Z,8.30
2019-02-07T21:13:12.512Z,8.30
2019-02-07T21:15:42.984Z,8.20
2019-02-07T21:18:13.613Z,8.20
2019-02-07T21:20:44.143Z,8.20
2019-02-07T21:23:14.738Z,8.20
2019-02-07T21:25:47.765Z,8.20
2019-02-07T21:28:18.392Z,8.20
2019-02-07T21:30:49.000Z,8.20
2019-02-07T21:33:19.706Z,8.20
2019-02-07T21:35:50.401Z,8.20
2019-02-07T21:38:20.944Z,8.20
2019-02-07T21:40:51.570Z,8.20
2019-02-07T21:43:22.070Z,8.20
2019-02-07T21:45:52.665Z,8.20
2019-02-07T21:48:23.260Z,8.20
2019-02-07T21:50:53.927Z,8.20
2019-02-07T21:53:24.587Z,8.20
2019-02-07T21:55:55.140Z,8.20
2019-02-07T21:58:25.996Z,8.20
2019-02-07T22:00:56.775Z,8.30
2019-02-07T22:03:27.645Z,8.30
2019-02-07T22:06:02.187Z,8.30
2019-02-07T22:08:32.782Z,8.30
2019-02-07T22:11:03.285Z,8.30
2019-02-07T22:13:33.918Z,8.30
2019-02-07T22:16:04.529Z,8.30
2019-02-07T22:18:36.161Z,8.40
2019-02-07T22:21:06.681Z,8.40
2019-02-07T22:23:37.628Z,8.40
2019-02-07T22:26:08.309Z,8.40
2019-02-07T22:28:39.322Z,8.40
2019-02-07T22:31:11.376Z,8.40
2019-02-07T22:33:42.000Z,8.40
2019-02-07T22:36:12.753Z,8.40
2019-02-07T22:38:43.277Z,8.50
2019-02-07T22:41:13.816Z,8.50
2019-02-07T22:43:44.361Z,8.50
2019-02-07T22:46:14.901Z,8.40
2019-02-07T22:48:45.493Z,8.40
2019-02-07T22:51:16.162Z,8.40
2019-02-07T22:53:46.792Z,8.50
2019-02-07T22:56:19.106Z,8.40
2019-02-07T22:58:49.678Z,8.50
2019-02-07T23:01:44.186Z,8.40
2019-02-07T23:04:16.035Z,8.50
2019-02-07T23:06:46.743Z,8.50
2019-02-07T23:09:20.578Z,8.50
2019-02-07T23:11:51.317Z,8.50
2019-02-07T23:14:21.960Z,8.50
2019-02-07T23:16:52.514Z,8.40
2019-02-07T23:19:23.193Z,8.50
2019-02-07T23:21:53.826Z,8.50
2019-02-07T23:24:24.330Z,8.50
2019-02-07T23:26:54.839Z,8.50
2019-02-07T23:29:38.620Z,8.50
2019-02-07T23:32:09.164Z,8.50
2019-02-07T23:34:39.715Z,8.50
2019-02-07T23:37:10.605Z,8.50
2019-02-07T23:39:41.163Z,8.60
2019-02-07T23:42:12.133Z,8.60
2019-02-07T23:44:42.743Z,8.60
2019-02-07T23:47:13.330Z,8.60
2019-02-07T23:49:43.901Z,8.60
2019-02-07T23:52:16.755Z,8.60
2019-02-07T23:54:47.344Z,8.60
2019-02-07T23:57:17.931Z,8.60
2019-02-07T23:59:48.510Z,8.70
